• Join FlightAware (Why Join?)
  • Login
  • US Flag 
04:41PM EST


 

Airport Tracker/Info


-or-


 

Live Flight TrackerFlight Track Log ✈ CSN6809 ✈ 24-Jul-2013 ✈ ZWWW / URC - ZWSH / KHG

Flight Track Log - Related Links

Times and Time Zones

All times are in EDT time to prevent confusion due to time zone crossing. See the CSN6809 flight status page for this flight to view local times or setup timezone preferences in your user account.

Time Position Orientation Groundspeed Altitude Reporting Facility
EDT Latitude Longitude Course Direction KTS MPH feet Rate Location/Type
05:07AM 43.8532 87.2996 247° West  Level Estimated
05:08AM 43.7990 87.1253 247° West  Level Estimated
05:09AM 43.7445 86.9513 247° West  Level Estimated
05:10AM 43.6897 86.7777 246° West  Level Estimated
05:11AM 43.6347 86.6043 246° West  Level Estimated
05:12AM 43.5795 86.4313 246° West  Level Estimated
05:13AM 43.5240 86.2586 246° West  Level Estimated
05:14AM 43.4682 86.0862 246° West  Level Estimated
05:15AM 43.4121 85.9141 246° West  Level Estimated
05:16AM 43.3558 85.7424 246° West  Level Estimated
05:17AM 43.2993 85.5709 246° West  Level Estimated
05:18AM 43.2425 85.3998 246° West  Level Estimated
05:19AM 43.1854 85.2290 245° Southwest  Level Estimated
05:20AM 43.1281 85.0585 245° Southwest  Level Estimated
05:21AM 43.0705 84.8884 245° Southwest  Level Estimated
05:22AM 43.0127 84.7185 245° Southwest  Level Estimated
05:23AM 42.9546 84.5490 245° Southwest  Level Estimated
05:24AM 42.8963 84.3798 245° Southwest  Level Estimated
05:25AM 42.8377 84.2109 245° Southwest  Level Estimated
05:26AM 42.7789 84.0424 245° Southwest  Level Estimated
05:27AM 42.7199 83.8741 245° Southwest  Level Estimated
05:28AM 42.6605 83.7062 244° Southwest  Level Estimated
05:29AM 42.6010 83.5386 244° Southwest  Level Estimated
05:30AM 42.5412 83.3713 244° Southwest  Level Estimated
05:31AM 42.4812 83.2044 244° Southwest  Level Estimated
05:32AM 42.4209 83.0378 244° Southwest  Level Estimated
05:33AM 42.3603 82.8715 244° Southwest  Level Estimated
05:34AM 42.2996 82.7055 244° Southwest  Level Estimated
05:35AM 42.2386 82.5398 244° Southwest  Level Estimated
05:36AM 42.1773 82.3744 243° Southwest  Level Estimated
05:37AM 42.1158 82.2094 243° Southwest  Level Estimated
05:38AM 42.0541 82.0447 243° Southwest  Level Estimated
05:39AM 41.9922 81.8803 243° Southwest  Level Estimated
05:40AM 41.9300 81.7162 243° Southwest  Level Estimated
05:41AM 41.8676 81.5525 243° Southwest  Level Estimated
05:42AM 41.8049 81.3891 243° Southwest  Level Estimated
05:43AM 41.7421 81.2260 243° Southwest  Level Estimated
05:44AM 41.6789 81.0632 243° Southwest  Level Estimated
05:45AM 41.6156 80.9007 243° Southwest  Level Estimated
05:46AM 41.5520 80.7385 242° Southwest  Level Estimated
05:47AM 41.4882 80.5767 242° Southwest  Level Estimated
05:48AM 41.4242 80.4152 242° Southwest  Level Estimated
05:49AM 41.3600 80.2540 242° Southwest  Level Estimated
05:50AM 41.2955 80.0931 242° Southwest  Level Estimated
05:51AM 41.2308 79.9326 242° Southwest  Level Estimated
05:52AM 41.1659 79.7723 242° Southwest  Level Estimated
05:53AM 41.1007 79.6124 242° Southwest  Level Estimated
05:54AM 41.0354 79.4528 242° Southwest  Level Estimated
05:55AM 40.9698 79.2935 241° Southwest  Level Estimated
05:56AM 40.9040 79.1346 241° Southwest  Level Estimated
05:57AM 40.8380 78.9759 241° Southwest  Level Estimated
05:58AM 40.7717 78.8176 241° Southwest  Level Estimated
05:59AM 40.7053 78.6596 241° Southwest  Level Estimated
06:00AM 40.6386 78.5018 241° Southwest  Level Estimated
06:01AM 40.5717 78.3445 241° Southwest  Level Estimated
06:02AM 40.5047 78.1874 241° Southwest  Level Estimated
06:03AM 40.4374 78.0306 241° Southwest  Level Estimated
06:04AM 40.3698 77.8742 241° Southwest  Level Estimated
06:05AM 40.3021 77.7180 240° Southwest  Level Estimated
06:06AM 40.2342 77.5622 240° Southwest  Level Estimated
06:07AM 40.1660 77.4067 240° Southwest  Level Estimated
06:08AM 40.0977 77.2515 240° Southwest  Level Estimated
06:09AM 40.0291 77.0966 240° Southwest  Level Estimated
06:10AM 39.9604 76.9421 240° Southwest  Level Estimated
06:11AM 39.8914 76.7878 240° Southwest  Level Estimated
06:12AM 39.8222 76.6339 240° Southwest  Level Estimated
06:13AM 39.7528 76.4802 240° Southwest  Level Estimated
06:14AM 39.6833 76.3269 240° Southwest  Level Estimated
06:15AM 39.6135 76.1739 239° Southwest  Level Estimated
06:16AM 39.5435 76.0212 239° Southwest  Level Estimated
06:17AM 39.5432 76.0206 239° Southwest  Level Estimated
06:18AM 39.5432 76.0206 252° West  Level Estimated
06:19AM 39.5432 76.0206 252° West  Level Estimated
06:20AM 39.5432 76.0206 252° West  Level Estimated
06:21AM 39.5432 76.0206 252° West  Level Estimated
06:22AM 39.5432 76.0206 252° West  Level Estimated
06:23AM 39.5432 76.0206 252° West  Level Estimated
06:24AM 39.5432 76.0206 252° West  Level Estimated
06:25AM 39.5432 76.0206 252° West  Level Estimated
06:26AM 39.5432 76.0206 252° West  Level Estimated
06:27AM 39.5432 76.0206 252° West  Level Estimated
06:28AM 39.5432 76.0206 252° West  Level Estimated
06:29AM 39.5432 76.0206 252° West  Level Estimated
06:30AM 39.5432 76.0206 252° West  Level Estimated
06:31AM 39.5432 76.0206 252° West  Level Estimated
06:32AM 39.5432 76.0206 252° West  Level Estimated